Time;durP1;ratioP1;P1;durP2;ratioP2;P2;SDS_P1;SDS_P2;PMS_P1;PMS_P2;Temp;Humidity;BMP_temperature;BMP_pressure;BME280_temperature;BME280_humidity;BME280_pressure;Samples;Min_cycle;Max_cycle;Signal;HPM_P1;HPM_P2
2021/03/21 00:02:21;;;;;;;20.52;4.18;;;19.00;99.90;;;;;;5000640;28;20152;-70
2021/03/21 00:04:47;;;;;;;20.48;3.60;;;19.00;99.90;;;;;;4979960;28;20040;-68
2021/03/21 00:07:14;;;;;;;13.73;3.60;;;18.90;99.90;;;;;;4986591;28;20134;-69
2021/03/21 00:09:41;;;;;;;19.50;5.60;;;19.00;99.90;;;;;;5000829;28;20056;-69
2021/03/21 00:12:08;;;;;;;15.23;3.58;;;19.10;99.90;;;;;;5002291;28;20030;-69
2021/03/21 00:14:35;;;;;;;20.52;3.67;;;19.30;99.90;;;;;;5008200;28;20054;-72
2021/03/21 00:17:02;;;;;;;16.52;3.35;;;19.10;99.90;;;;;;5010782;28;20038;-69
2021/03/21 00:19:29;;;;;;;20.55;3.47;;;19.00;99.90;;;;;;4988819;28;20138;-72
2021/03/21 00:21:56;;;;;;;18.33;3.38;;;19.00;99.90;;;;;;5004568;28;20026;-68
2021/03/21 00:24:22;;;;;;;16.77;3.75;;;19.00;99.90;;;;;;5002725;28;20019;-69
2021/03/21 00:26:49;;;;;;;23.67;4.28;;;19.10;99.90;;;;;;5001412;28;20405;-69
2021/03/21 00:29:16;;;;;;;19.38;4.13;;;19.00;99.90;;;;;;4998103;28;20034;-68
2021/03/21 00:31:42;;;;;;;14.45;3.08;;;18.80;99.90;;;;;;4999580;28;20626;-69
2021/03/21 00:34:09;;;;;;;16.92;3.38;;;18.80;99.90;;;;;;4999476;28;20030;-67
2021/03/21 00:36:35;;;;;;;19.42;4.00;;;18.60;99.90;;;;;;4984351;28;20026;-67
2021/03/21 00:39:04;;;;;;;19.05;3.42;;;18.60;99.90;;;;;;4999793;28;20069;-67
2021/03/21 00:41:31;;;;;;;15.38;3.10;;;18.30;99.90;;;;;;4995509;28;20034;-68
2021/03/21 00:43:58;;;;;;;13.02;3.33;;;18.30;99.90;;;;;;4992251;28;20048;-69
2021/03/21 00:46:26;;;;;;;13.27;3.65;;;17.80;99.90;;;;;;4996357;28;20030;-66
2021/03/21 00:48:53;;;;;;;15.15;4.10;;;17.50;99.90;;;;;;4992835;28;20043;-70
2021/03/21 00:51:21;;;;;;;19.75;3.33;;;17.40;99.90;;;;;;4985925;28;20050;-68
2021/03/21 00:53:47;;;;;;;19.73;3.80;;;17.40;99.90;;;;;;4981995;28;20030;-66
2021/03/21 00:56:33;;;;;;;19.98;2.95;;;17.40;99.90;;;;;;4977244;28;20130;-67
2021/03/21 00:59:01;;;;;;;12.43;2.53;;;17.60;99.90;;;;;;4972633;28;20493;-68
2021/03/21 01:01:30;;;;;;;10.98;2.45;;;17.50;99.90;;;;;;4999980;28;20018;-68
2021/03/21 01:03:58;;;;;;;15.73;2.63;;;17.40;99.90;;;;;;4980612;28;20041;-68
2021/03/21 01:06:24;;;;;;;14.40;2.60;;;17.40;99.90;;;;;;4977240;28;20027;-68
2021/03/21 01:08:57;;;;;;;13.18;2.85;;;17.40;99.90;;;;;;5000240;28;20029;-68
2021/03/21 01:11:32;;;;;;;15.15;2.15;;;17.10;99.90;;;;;;4997475;28;20026;-68
2021/03/21 01:13:59;;;;;;;14.55;2.47;;;17.10;99.90;;;;;;4970783;28;20030;-68
2021/03/21 01:16:40;;;;;;;10.82;2.10;;;16.80;99.90;;;;;;4978724;28;20034;-69
2021/03/21 01:19:18;;;;;;;19.10;2.30;;;16.50;99.90;;;;;;4977235;28;20058;-67
2021/03/21 01:21:45;;;;;;;13.48;2.28;;;16.50;99.90;;;;;;4965211;28;20074;-68
2021/03/21 01:24:17;;;;;;;14.75;2.30;;;16.50;99.90;;;;;;4967314;28;20031;-67
2021/03/21 01:26:45;;;;;;;11.20;2.38;;;16.40;99.90;;;;;;4966205;28;20031;-67
2021/03/21 01:29:12;;;;;;;6.80;1.83;;;16.10;99.90;;;;;;4974328;28;20059;-67
2021/03/21 01:31:39;;;;;;;13.65;3.78;;;16.10;99.90;;;;;;4974302;28;20031;-68
2021/03/21 01:34:05;;;;;;;12.90;2.72;;;16.10;99.90;;;;;;4976110;28;20027;-66
2021/03/21 01:36:35;;;;;;;17.58;2.78;;;16.00;99.90;;;;;;4976084;28;20046;-67
2021/03/21 01:39:07;;;;;;;14.43;2.97;;;15.90;99.90;;;;;;4978278;28;20023;-67
2021/03/21 01:41:38;;;;;;;13.88;2.67;;;15.80;99.90;;;;;;4977142;28;20023;-68
2021/03/21 01:44:15;;;;;;;16.80;2.75;;;15.80;99.90;;;;;;4978897;28;20042;-68
2021/03/21 01:46:54;;;;;;;17.02;3.13;;;15.70;99.90;;;;;;4972014;28;20034;-68
2021/03/21 01:49:33;;;;;;;17.65;2.97;;;15.60;99.90;;;;;;4976669;28;20465;-68
2021/03/21 01:52:02;;;;;;;26.15;3.83;;;15.50;99.90;;;;;;4974496;28;20047;-68
2021/03/21 01:54:30;;;;;;;18.38;3.20;;;15.40;99.90;;;;;;4963227;28;20482;-66
2021/03/21 01:56:58;;;;;;;11.93;2.83;;;15.30;99.90;;;;;;4968189;28;20042;-67
2021/03/21 01:59:31;;;;;;;15.07;3.22;;;15.30;99.90;;;;;;4977247;28;20034;-67
2021/03/21 02:02:01;;;;;;;15.57;3.22;;;15.20;99.90;;;;;;4977544;28;20026;-67
2021/03/21 02:04:34;;;;;;;17.55;3.58;;;15.00;99.90;;;;;;4974418;28;20630;-68
2021/03/21 02:07:22;;;;;;;22.17;4.65;;;15.00;99.90;;;;;;4968022;28;20023;-67
2021/03/21 02:10:34;;;;;;;21.67;2.95;;;14.90;99.90;;;;;;4975713;28;20030;-67
2021/03/21 02:13:28;;;;;;;13.90;2.60;;;14.90;99.90;;;;;;4977559;28;20090;-67
2021/03/21 02:16:06;;;;;;;23.58;3.47;;;14.90;99.90;;;;;;4976958;28;20026;-67
2021/03/21 02:18:42;;;;;;;15.45;4.70;;;14.80;99.90;;;;;;4975204;28;20066;-66
2021/03/21 02:21:28;;;;;;;30.10;4.15;;;14.70;99.90;;;;;;4993251;28;20042;-67
2021/03/21 02:24:20;;;;;;;16.30;2.78;;;14.70;99.90;;;;;;4988941;28;20061;-64
2021/03/21 02:26:53;;;;;;;17.67;3.33;;;14.60;99.90;;;;;;4982181;28;20079;-64
2021/03/21 02:29:40;;;;;;;16.33;3.35;;;14.60;99.90;;;;;;4961157;28;20441;-63
2021/03/21 02:32:13;;;;;;;24.55;4.38;;;14.50;99.90;;;;;;4968600;28;20065;-64
2021/03/21 02:34:58;;;;;;;20.83;3.63;;;14.40;99.90;;;;;;4988731;28;20065;-63
2021/03/21 02:37:56;;;;;;;23.88;3.42;;;14.30;99.90;;;;;;4969172;28;20471;-64
2021/03/21 02:40:30;;;;;;;21.15;3.55;;;14.30;99.90;;;;;;4991630;28;20061;-64
2021/03/21 02:43:13;;;;;;;22.73;3.70;;;14.30;99.90;;;;;;4969338;28;20117;-65
2021/03/21 02:45:43;;;;;;;19.17;3.35;;;14.30;99.90;;;;;;4997316;28;20022;-65
2021/03/21 02:48:20;;;;;;;20.73;3.95;;;14.30;99.90;;;;;;4992903;28;20041;-64
2021/03/21 02:51:12;;;;;;;22.38;3.55;;;14.20;99.90;;;;;;4985878;28;20038;-64
2021/03/21 02:53:56;;;;;;;26.08;3.97;;;14.20;99.90;;;;;;4966827;28;20112;-64
2021/03/21 02:56:26;;;;;;;21.73;3.55;;;14.20;99.90;;;;;;4985108;28;20050;-64
2021/03/21 02:59:01;;;;;;;21.35;3.83;;;14.10;99.90;;;;;;4987044;28;20160;-63
2021/03/21 03:01:33;;;;;;;27.30;4.18;;;14.00;99.90;;;;;;4985369;28;20445;-64
2021/03/21 03:04:08;;;;;;;19.48;3.50;;;13.80;99.90;;;;;;4987022;28;20038;-63
2021/03/21 03:06:44;;;;;;;28.73;4.22;;;13.90;99.90;;;;;;4986023;28;20026;-63
2021/03/21 03:09:21;;;;;;;14.25;3.60;;;13.50;99.90;;;;;;4986937;28;20077;-63
2021/03/21 03:11:54;;;;;;;31.17;4.00;;;13.40;99.90;;;;;;4985981;28;20050;-63
2021/03/21 03:14:25;;;;;;;18.60;4.25;;;13.20;99.90;;;;;;4991913;28;20041;-63
2021/03/21 03:16:55;;;;;;;27.52;4.13;;;13.20;99.90;;;;;;4984938;28;20089;-64
2021/03/21 03:19:46;;;;;;;24.05;4.75;;;13.10;99.90;;;;;;4986581;28;20050;-63
2021/03/21 03:22:21;;;;;;;25.70;3.70;;;13.30;99.90;;;;;;4986115;28;20026;-63
2021/03/21 03:25:02;;;;;;;21.90;4.00;;;13.20;99.90;;;;;;4986206;28;20493;-64
2021/03/21 03:28:00;;;;;;;18.30;4.20;;;13.00;99.90;;;;;;4985963;28;20045;-64
2021/03/21 03:30:37;;;;;;;30.70;4.65;;;12.80;99.90;;;;;;4986154;28;20512;-64
2021/03/21 03:33:07;;;;;;;23.95;3.90;;;12.60;99.90;;;;;;4969520;28;20045;-63
2021/03/21 03:35:34;;;;;;;24.02;4.05;;;12.60;99.90;;;;;;4990124;28;20023;-63
2021/03/21 03:38:00;;;;;;;23.52;4.10;;;12.60;99.90;;;;;;4985940;28;20030;-64
2021/03/21 03:40:27;;;;;;;13.25;3.83;;;12.60;99.90;;;;;;4986314;28;20054;-63
2021/03/21 03:43:12;;;;;;;17.63;3.28;;;12.60;99.90;;;;;;4985309;28;20022;-64
2021/03/21 03:46:01;;;;;;;15.80;3.38;;;12.60;99.90;;;;;;4982389;28;20032;-62
2021/03/21 03:48:54;;;;;;;32.70;5.90;;;12.50;99.90;;;;;;4982548;28;20572;-63
2021/03/21 03:51:42;;;;;;;18.90;3.25;;;12.40;99.90;;;;;;4985382;28;20049;-63
2021/03/21 03:54:41;;;;;;;19.48;3.55;;;12.30;99.90;;;;;;4986261;28;20037;-63
2021/03/21 03:57:15;;;;;;;20.38;3.50;;;12.30;99.90;;;;;;4986080;28;20101;-64
2021/03/21 04:00:04;;;;;;;18.77;2.92;;;12.30;99.90;;;;;;4986068;28;20093;-63
2021/03/21 04:02:55;;;;;;;18.80;4.25;;;12.30;99.90;;;;;;4979983;28;20038;-64
2021/03/21 04:05:33;;;;;;;24.88;3.35;;;12.50;99.90;;;;;;4973503;28;20034;-64
2021/03/21 04:08:27;;;;;;;23.23;2.85;;;12.40;99.90;;;;;;4985835;28;20405;-64
2021/03/21 04:11:12;;;;;;;22.95;4.72;;;12.30;99.90;;;;;;4979808;28;20101;-63
2021/03/21 04:13:46;;;;;;;21.33;3.80;;;12.20;99.90;;;;;;4986649;28;20057;-63
2021/03/21 04:16:18;;;;;;;15.73;3.65;;;12.10;99.90;;;;;;4987722;28;20030;-63
2021/03/21 04:19:02;;;;;;;14.70;3.67;;;12.10;99.90;;;;;;4988489;28;20048;-63
2021/03/21 04:21:42;;;;;;;16.58;3.25;;;12.10;99.90;;;;;;4981005;28;20105;-64
2021/03/21 04:24:38;;;;;;;23.02;3.15;;;12.00;99.90;;;;;;4989177;28;20033;-64
2021/03/21 04:27:20;;;;;;;14.82;3.42;;;12.10;99.90;;;;;;4984462;28;20042;-64
2021/03/21 04:29:56;;;;;;;17.58;3.35;;;12.10;99.90;;;;;;4989434;28;20048;-64
2021/03/21 04:32:29;;;;;;;17.35;3.55;;;12.00;99.90;;;;;;4988692;28;20031;-64
2021/03/21 04:35:01;;;;;;;27.55;5.07;;;11.90;99.90;;;;;;4989546;28;20153;-64
2021/03/21 04:37:29;;;;;;;17.92;3.92;;;11.70;99.90;;;;;;4983409;28;20031;-66
2021/03/21 04:39:57;;;;;;;15.27;3.47;;;11.70;99.90;;;;;;4987895;28;20373;-66
2021/03/21 04:42:39;;;;;;;21.10;4.00;;;11.70;99.90;;;;;;4969130;28;20038;-66
2021/03/21 04:45:18;;;;;;;18.75;4.28;;;11.70;99.90;;;;;;4988672;28;20418;-66
2021/03/21 04:47:54;;;;;;;13.23;3.20;;;11.80;99.90;;;;;;4987933;28;20023;-66
2021/03/21 04:50:21;;;;;;;23.15;5.25;;;11.80;99.90;;;;;;4986361;28;20030;-66
2021/03/21 04:52:56;;;;;;;21.73;4.00;;;11.90;99.90;;;;;;4981554;28;20429;-66
2021/03/21 04:55:24;;;;;;;32.95;4.95;;;11.90;99.90;;;;;;4966540;28;20042;-67
2021/03/21 04:57:57;;;;;;;22.77;4.18;;;12.00;99.90;;;;;;4985387;28;20022;-66
2021/03/21 05:00:39;;;;;;;22.02;3.72;;;12.00;99.90;;;;;;4975778;28;20453;-66
2021/03/21 05:03:32;;;;;;;27.00;4.57;;;11.90;99.90;;;;;;4987426;28;20037;-66
2021/03/21 05:06:03;;;;;;;18.73;3.53;;;12.00;99.90;;;;;;4981326;28;20050;-67
2021/03/21 05:08:39;;;;;;;22.48;3.83;;;11.90;99.90;;;;;;4986342;28;20034;-67
2021/03/21 05:11:08;;;;;;;19.77;4.55;;;11.90;99.90;;;;;;4985935;28;20041;-66
2021/03/21 05:13:38;;;;;;;17.65;3.85;;;11.70;99.90;;;;;;4983086;28;20030;-66
2021/03/21 05:16:26;;;;;;;19.33;3.60;;;11.70;99.90;;;;;;4980648;28;20023;-69
2021/03/21 05:19:08;;;;;;;20.57;5.03;;;11.60;99.90;;;;;;4985963;28;20030;-69
2021/03/21 05:21:42;;;;;;;16.38;4.05;;;11.70;99.90;;;;;;4987962;28;20030;-68
2021/03/21 05:24:22;;;;;;;25.48;4.78;;;11.70;99.90;;;;;;4986098;28;20496;-68
2021/03/21 05:26:51;;;;;;;28.85;4.28;;;11.60;99.90;;;;;;4988389;28;20030;-67
2021/03/21 05:29:44;;;;;;;18.20;4.65;;;11.50;99.90;;;;;;4986195;28;20032;-67
2021/03/21 05:32:13;;;;;;;33.85;5.70;;;11.60;99.90;;;;;;4962435;28;20043;-67
2021/03/21 05:34:40;;;;;;;20.13;4.10;;;11.60;99.90;;;;;;4985102;28;20091;-66
2021/03/21 05:37:09;;;;;;;18.85;4.05;;;11.50;99.90;;;;;;4980755;28;20027;-66
2021/03/21 05:40:33;;;;;;;15.50;3.72;;;11.60;99.90;;;;;;4982826;28;20569;-67
2021/03/21 05:43:24;;;;;;;22.50;4.20;;;11.50;99.90;;;;;;4898863;28;20075;-67
2021/03/21 05:46:12;;;;;;;20.65;3.55;;;11.40;99.90;;;;;;4979152;28;20033;-67
2021/03/21 05:48:41;;;;;;;20.77;4.57;;;11.30;99.90;;;;;;4984569;28;20062;-69
2021/03/21 05:51:45;;;;;;;16.67;4.03;;;11.20;99.90;;;;;;4983074;28;20056;-67
2021/03/21 05:54:40;;;;;;;19.08;4.45;;;11.10;99.90;;;;;;4983145;28;20042;-67
2021/03/21 05:57:38;;;;;;;23.40;3.42;;;11.10;99.90;;;;;;4974846;28;20430;-67
2021/03/21 06:00:37;;;;;;;22.58;4.47;;;11.20;99.90;;;;;;4984553;28;20030;-68
2021/03/21 06:03:15;;;;;;;;;;;11.10;99.90;;;;;;4983718;28;20125;-67
2021/03/21 06:06:00;;;;;;;23.52;5.10;;;11.10;99.90;;;;;;4980848;28;19909;-68
2021/03/21 06:08:36;;;;;;;16.60;3.15;;;11.20;99.90;;;;;;4978372;28;20022;-67
2021/03/21 06:11:21;;;;;;;18.42;3.67;;;11.10;99.90;;;;;;4985929;28;20030;-67
2021/03/21 06:14:00;;;;;;;21.05;4.20;;;10.90;99.90;;;;;;4977789;28;20053;-66
2021/03/21 06:16:30;;;;;;;21.88;3.80;;;10.80;99.90;;;;;;4980931;28;20464;-67
2021/03/21 06:19:35;;;;;;;15.27;4.50;;;10.70;99.90;;;;;;4976565;28;20061;-67
2021/03/21 06:22:19;;;;;;;22.52;4.07;;;10.70;99.90;;;;;;4963564;28;20114;-68
2021/03/21 06:25:11;;;;;;;16.23;3.35;;;10.70;99.90;;;;;;4982559;28;20117;-68
2021/03/21 06:27:37;;;;;;;27.40;4.90;;;10.60;99.90;;;;;;4981847;28;20022;-67
2021/03/21 06:30:23;;;;;;;17.38;4.45;;;10.80;99.90;;;;;;4985114;28;20030;-68
2021/03/21 06:33:00;;;;;;;17.48;5.00;;;10.80;99.90;;;;;;4981591;28;20034;-68
2021/03/21 06:35:45;;;;;;;25.02;6.35;;;10.70;99.90;;;;;;4986696;28;20437;-68
2021/03/21 06:38:11;;;;;;;20.17;6.07;;;10.80;99.90;;;;;;4985177;28;20072;-68
2021/03/21 06:40:38;;;;;;;19.80;5.30;;;10.80;99.90;;;;;;4986117;28;20366;-68
2021/03/21 06:43:26;;;;;;;30.85;7.20;;;10.90;99.90;;;;;;4986867;28;20113;-68
2021/03/21 06:46:05;;;;;;;23.67;7.50;;;10.90;99.90;;;;;;4962643;28;20022;-67
2021/03/21 06:49:22;;;;;;;22.65;6.25;;;10.90;99.90;;;;;;4982213;28;20031;-67
2021/03/21 06:52:07;;;;;;;20.55;6.10;;;10.80;99.90;;;;;;4926329;28;20058;-67
2021/03/21 06:55:25;;;;;;;23.98;5.35;;;10.60;99.90;;;;;;4973981;28;20098;-67
2021/03/21 06:57:57;;;;;;;;;;;10.70;99.90;;;;;;4961122;28;20486;-66
2021/03/21 07:00:52;;;;;;;22.83;5.50;;;10.70;99.90;;;;;;4985621;28;19994;-66
2021/03/21 07:03:56;;;;;;;23.67;5.72;;;10.70;99.90;;;;;;4986088;28;20100;-66
2021/03/21 07:07:09;;;;;;;21.85;5.70;;;10.60;99.90;;;;;;4985806;28;20571;-66
2021/03/21 07:10:03;;;;;;;30.20;6.88;;;10.60;99.90;;;;;;4979544;28;20045;-66
2021/03/21 07:12:51;;;;;;;17.20;4.60;;;10.40;99.90;;;;;;4980858;28;20034;-66
2021/03/21 07:15:36;;;;;;;17.48;5.00;;;10.30;99.90;;;;;;4984241;28;20030;-66
2021/03/21 07:18:31;;;;;;;26.98;5.57;;;10.20;99.90;;;;;;4986628;28;20080;-67
2021/03/21 07:21:19;;;;;;;22.27;4.65;;;10.20;99.90;;;;;;4969605;28;20497;-66
2021/03/21 07:23:58;;;;;;;22.85;3.70;;;10.10;99.90;;;;;;4985365;28;20130;-67
2021/03/21 07:26:45;;;;;;;23.10;4.35;;;10.20;99.90;;;;;;4986070;28;20688;-66
2021/03/21 07:29:47;;;;;;;15.55;3.55;;;10.30;99.90;;;;;;4977578;28;20034;-67
2021/03/21 07:32:35;;;;;;;25.88;5.68;;;10.40;99.90;;;;;;4980409;28;20038;-68
2021/03/21 07:35:20;;;;;;;13.98;4.63;;;10.30;99.90;;;;;;4985153;28;20144;-68
2021/03/21 07:37:49;;;;;;;23.77;5.25;;;10.20;99.90;;;;;;4990115;28;20030;-67
2021/03/21 07:40:39;;;;;;;18.67;5.05;;;10.20;99.90;;;;;;4978858;28;20035;-66
2021/03/21 07:43:23;;;;;;;19.77;4.18;;;10.10;99.90;;;;;;4982568;28;20026;-66
2021/03/21 07:46:11;;;;;;;15.45;3.22;;;10.20;99.90;;;;;;4987691;28;20494;-67
2021/03/21 07:48:49;;;;;;;23.50;5.55;;;10.30;99.90;;;;;;4989709;28;20030;-66
2021/03/21 07:51:37;;;;;;;17.58;3.22;;;10.40;99.90;;;;;;4988123;28;20031;-67
2021/03/21 07:54:38;;;;;;;20.60;4.07;;;10.20;99.90;;;;;;4967695;28;20120;-67
2021/03/21 07:57:16;;;;;;;14.18;4.20;;;10.10;99.90;;;;;;4986502;28;20054;-66
2021/03/21 07:59:46;;;;;;;19.45;3.40;;;10.00;99.90;;;;;;4988336;28;20027;-67
2021/03/21 08:02:17;;;;;;;23.23;4.15;;;10.00;99.90;;;;;;4968325;28;20527;-67
2021/03/21 08:04:48;;;;;;;20.30;3.97;;;10.00;99.90;;;;;;4969273;28;20646;-67
2021/03/21 08:07:30;;;;;;;23.52;4.57;;;10.00;99.90;;;;;;4982620;28;20026;-67
2021/03/21 08:09:57;;;;;;;18.52;4.53;;;10.00;99.90;;;;;;4989724;28;20413;-67
2021/03/21 08:12:23;;;;;;;20.77;4.22;;;10.00;99.90;;;;;;4989309;28;20118;-67
2021/03/21 08:14:57;;;;;;;9.70;2.65;;;10.10;99.90;;;;;;4988678;28;20030;-67
2021/03/21 08:17:42;;;;;;;19.60;3.97;;;10.10;99.90;;;;;;4989213;28;20049;-66
2021/03/21 08:20:52;;;;;;;12.45;2.65;;;10.20;99.90;;;;;;4988514;28;20045;-67
2021/03/21 08:23:26;;;;;;;22.15;4.03;;;10.10;99.90;;;;;;4909801;29;20067;-67
2021/03/21 08:25:55;;;;;;;13.82;4.05;;;10.10;99.90;;;;;;4981142;28;20045;-67
2021/03/21 08:28:24;;;;;;;17.83;4.15;;;10.20;99.90;;;;;;4978257;28;20035;-67
2021/03/21 08:30:59;;;;;;;17.35;3.55;;;10.30;99.90;;;;;;4985786;28;20073;-67
2021/03/21 08:33:35;;;;;;;16.88;4.45;;;10.10;99.90;;;;;;4989341;28;20046;-67
2021/03/21 08:36:19;;;;;;;17.92;3.83;;;10.00;99.90;;;;;;4989769;28;20026;-67
2021/03/21 08:39:13;;;;;;;14.18;3.67;;;10.00;99.90;;;;;;4989570;28;20446;-67
2021/03/21 08:41:55;;;;;;;19.05;3.33;;;9.80;99.90;;;;;;4989268;28;20026;-67
2021/03/21 08:44:44;;;;;;;17.10;3.13;;;9.80;99.90;;;;;;4989024;28;20026;-67
2021/03/21 08:47:19;;;;;;;15.95;4.03;;;9.80;99.90;;;;;;4989243;28;20038;-67
2021/03/21 08:49:50;;;;;;;16.77;4.10;;;9.90;99.90;;;;;;4988572;28;20544;-67
2021/03/21 08:52:43;;;;;;;17.15;4.00;;;10.00;99.90;;;;;;4988668;28;20042;-67
2021/03/21 08:55:39;;;;;;;22.75;4.20;;;9.80;99.90;;;;;;4984460;28;20843;-67
2021/03/21 08:58:31;;;;;;;17.52;4.30;;;9.60;99.90;;;;;;4976012;28;20061;-67
2021/03/21 09:01:17;;;;;;;20.42;3.20;;;9.50;99.90;;;;;;4981423;28;20124;-67
2021/03/21 09:03:45;;;;;;;16.30;3.75;;;9.50;99.90;;;;;;4988788;28;20050;-67
2021/03/21 09:06:36;;;;;;;14.02;3.10;;;9.60;99.90;;;;;;4988626;28;20432;-67
2021/03/21 09:09:18;;;;;;;14.80;3.13;;;9.80;99.90;;;;;;4988674;28;20041;-67
2021/03/21 09:11:48;;;;;;;21.58;4.28;;;9.70;99.90;;;;;;4987371;28;20072;-67
2021/03/21 09:14:28;;;;;;;12.13;3.30;;;9.70;99.90;;;;;;4988759;28;20037;-67
2021/03/21 09:17:02;;;;;;;24.00;5.95;;;9.80;99.90;;;;;;4988476;28;20122;-67
2021/03/21 09:19:39;;;;;;;14.23;3.40;;;9.80;99.90;;;;;;4988612;28;20594;-67
2021/03/21 09:22:33;;;;;;;19.65;4.15;;;9.70;99.90;;;;;;4987905;28;20046;-67
2021/03/21 09:25:26;;;;;;;20.67;4.88;;;9.60;99.90;;;;;;4987239;28;20038;-67
2021/03/21 09:27:55;;;;;;;23.75;3.47;;;9.50;99.90;;;;;;4987270;28;20023;-67
2021/03/21 09:30:37;;;;;;;12.85;4.00;;;9.50;99.90;;;;;;4987858;28;20036;-67
2021/03/21 09:33:19;;;;;;;23.00;4.15;;;9.40;99.90;;;;;;4988107;28;20066;-67
2021/03/21 09:35:50;;;;;;;18.13;3.88;;;9.50;99.90;;;;;;4987743;28;20109;-67
2021/03/21 09:38:20;;;;;;;20.15;4.03;;;9.60;99.90;;;;;;4987761;28;20034;-67
2021/03/21 09:40:54;;;;;;;20.85;3.80;;;9.40;99.90;;;;;;4986448;28;20033;-67
2021/03/21 09:43:26;;;;;;;18.48;3.38;;;9.40;99.90;;;;;;4988033;28;20027;-67
2021/03/21 09:46:05;;;;;;;20.35;4.30;;;9.50;99.90;;;;;;4987445;28;20026;-68
2021/03/21 09:48:43;;;;;;;22.55;4.18;;;9.50;99.90;;;;;;4987660;28;20482;-67
2021/03/21 09:51:40;;;;;;;17.38;2.90;;;9.50;99.90;;;;;;4987496;28;20092;-67
2021/03/21 09:54:15;;;;;;;16.55;3.35;;;9.40;99.90;;;;;;4985882;28;20505;-67
2021/03/21 09:57:03;;;;;;;21.02;4.28;;;9.30;99.90;;;;;;4983610;28;20030;-67
2021/03/21 09:59:43;;;;;;;21.27;3.78;;;9.20;99.90;;;;;;4966426;28;20442;-67
2021/03/21 10:02:22;;;;;;;12.30;3.35;;;9.10;99.90;;;;;;4987380;28;20042;-67
2021/03/21 10:05:02;;;;;;;17.15;3.63;;;9.20;99.90;;;;;;4987084;28;20038;-67
2021/03/21 10:07:47;;;;;;;11.88;3.03;;;9.20;99.90;;;;;;4987300;28;20041;-67
2021/03/21 10:10:34;;;;;;;17.92;4.32;;;9.20;99.90;;;;;;4985691;28;20026;-68
2021/03/21 10:13:01;;;;;;;12.63;2.92;;;9.10;99.90;;;;;;4986075;28;20156;-68
2021/03/21 10:15:27;;;;;;;19.75;3.83;;;9.10;99.90;;;;;;4982567;28;20032;-68
2021/03/21 10:18:02;;;;;;;14.90;3.33;;;9.10;99.90;;;;;;4986440;28;20030;-68
2021/03/21 10:20:52;;;;;;;18.42;4.03;;;9.20;99.90;;;;;;4984288;28;20140;-67
2021/03/21 10:23:19;;;;;;;15.75;4.90;;;9.30;99.90;;;;;;4983528;28;20105;-67
2021/03/21 10:25:45;;;;;;;15.40;4.20;;;9.30;99.90;;;;;;4980182;28;20027;-68
2021/03/21 10:28:43;;;;;;;19.48;4.20;;;9.40;99.90;;;;;;4973157;28;20482;-67
2021/03/21 10:31:26;;;;;;;28.63;5.05;;;9.40;99.90;;;;;;4986608;28;20490;-68
2021/03/21 10:34:04;;;;;;;19.25;3.70;;;9.40;99.90;;;;;;4986885;28;20044;-68
2021/03/21 10:36:38;;;;;;;14.93;3.85;;;9.40;99.90;;;;;;4987172;28;20049;-68
2021/03/21 10:39:12;;;;;;;16.33;3.65;;;9.40;99.90;;;;;;4987455;28;20034;-68
2021/03/21 10:41:57;;;;;;;15.48;4.70;;;9.40;99.90;;;;;;4969928;28;20034;-69
2021/03/21 10:44:50;;;;;;;19.73;3.75;;;9.50;99.90;;;;;;4982928;28;20053;-68
2021/03/21 10:47:22;;;;;;;31.13;4.38;;;9.50;99.90;;;;;;4980353;28;20049;-67
2021/03/21 10:49:53;;;;;;;13.95;3.67;;;9.50;99.90;;;;;;4976116;28;20026;-68
2021/03/21 10:52:33;;;;;;;28.83;5.68;;;9.40;99.90;;;;;;4986421;28;20042;-68
2021/03/21 10:55:16;;;;;;;21.25;4.35;;;9.50;99.90;;;;;;4976676;28;20061;-67
2021/03/21 10:57:43;;;;;;;11.73;4.30;;;9.40;99.90;;;;;;4986336;28;20338;-68
2021/03/21 11:00:33;;;;;;;18.88;4.50;;;9.40;99.90;;;;;;4987166;28;20026;-68
2021/03/21 11:02:59;;;;;;;13.20;3.75;;;9.40;99.90;;;;;;4986108;28;20030;-69
2021/03/21 11:05:39;;;;;;;18.13;4.43;;;9.40;99.90;;;;;;4987404;28;20026;-68
2021/03/21 11:08:12;;;;;;;23.85;5.05;;;9.50;99.90;;;;;;4986056;28;20434;-68
2021/03/21 11:10:51;;;;;;;14.93;3.22;;;9.40;99.90;;;;;;4979747;28;20459;-69
2021/03/21 11:13:29;;;;;;;16.65;4.15;;;9.40;99.90;;;;;;4986639;28;20034;-68
2021/03/21 11:15:55;;;;;;;15.90;3.55;;;9.40;99.90;;;;;;4986995;28;20512;-68
2021/03/21 11:18:29;;;;;;;27.45;3.85;;;9.30;99.90;;;;;;4986098;28;20109;-68
2021/03/21 11:21:14;;;;;;;12.63;3.72;;;9.30;99.90;;;;;;4985805;28;20050;-67
2021/03/21 11:23:47;;;;;;;17.98;4.47;;;9.30;99.90;;;;;;4973597;28;20035;-68
2021/03/21 11:26:26;;;;;;;22.50;4.70;;;9.30;99.90;;;;;;4972452;28;20019;-68
2021/03/21 11:28:53;;;;;;;;;;;9.30;99.90;;;;;;4972267;28;20066;-69
2021/03/21 11:31:42;;;;;;;18.45;3.88;;;9.20;99.90;;;;;;4972096;28;19921;-68
2021/03/21 11:34:25;;;;;;;25.15;5.43;;;9.30;99.90;;;;;;4972302;28;20156;-68
2021/03/21 11:37:11;;;;;;;18.38;4.85;;;9.30;99.90;;;;;;4971862;28;20049;-68
2021/03/21 11:39:41;;;;;;;16.50;3.88;;;9.10;99.90;;;;;;4971416;28;20044;-68
2021/03/21 11:42:24;;;;;;;19.33;4.18;;;9.00;99.90;;;;;;4971988;28;20501;-67
2021/03/21 11:44:54;;;;;;;19.40;4.60;;;8.90;99.90;;;;;;4971702;28;20019;-68
2021/03/21 11:47:29;;;;;;;10.85;3.40;;;8.90;99.90;;;;;;4971661;28;20621;-68
2021/03/21 11:49:58;;;;;;;26.65;5.35;;;8.90;99.90;;;;;;4971919;28;20035;-68
2021/03/21 11:52:25;;;;;;;21.70;4.40;;;8.80;99.90;;;;;;4972345;28;20066;-69
2021/03/21 11:54:53;;;;;;;25.30;4.35;;;8.90;99.90;;;;;;4971121;28;20038;-68
2021/03/21 11:57:50;;;;;;;12.97;3.53;;;9.00;99.90;;;;;;4972148;28;20042;-68
2021/03/21 12:00:28;;;;;;;20.35;4.63;;;9.00;99.90;;;;;;4972545;28;20034;-67
2021/03/21 12:03:14;;;;;;;9.35;2.90;;;9.00;99.90;;;;;;4971739;28;20061;-67
2021/03/21 12:05:43;;;;;;;12.57;4.15;;;9.00;99.90;;;;;;4971939;28;20105;-68
2021/03/21 12:08:24;;;;;;;13.32;4.43;;;9.10;99.90;;;;;;4971491;28;20060;-68
2021/03/21 12:10:53;;;;;;;15.70;4.15;;;9.20;99.90;;;;;;4971962;28;20023;-68
2021/03/21 12:13:31;;;;;;;17.58;4.32;;;9.20;99.90;;;;;;4971606;28;20042;-67
2021/03/21 12:16:00;;;;;;;29.75;4.78;;;9.20;99.90;;;;;;4972125;28;20042;-67
2021/03/21 12:18:31;;;;;;;24.43;5.27;;;9.10;99.90;;;;;;4971869;28;20035;-68
2021/03/21 12:21:15;;;;;;;29.30;6.22;;;9.10;99.90;;;;;;4971758;28;20362;-69
2021/03/21 12:23:56;;;;;;;26.92;5.70;;;9.10;99.90;;;;;;4975440;28;20105;-68
2021/03/21 12:26:32;;;;;;;18.60;4.93;;;9.10;99.90;;;;;;4975208;28;20049;-68
2021/03/21 12:29:04;;;;;;;18.70;4.60;;;9.10;99.90;;;;;;4975107;28;20045;-69
2021/03/21 12:31:32;;;;;;;13.98;5.00;;;9.10;99.90;;;;;;4975135;28;20036;-67
2021/03/21 12:34:19;;;;;;;20.20;6.23;;;9.00;99.90;;;;;;4975062;28;20031;-67
2021/03/21 12:37:11;;;;;;;23.98;5.90;;;8.90;99.90;;;;;;4975180;28;20169;-68
2021/03/21 12:39:47;;;;;;;22.92;5.32;;;8.80;99.90;;;;;;4974610;28;20089;-67
2021/03/21 12:42:31;;;;;;;20.98;4.10;;;8.90;99.90;;;;;;4975087;28;20026;-67
2021/03/21 12:45:26;;;;;;;19.35;4.63;;;8.80;99.90;;;;;;4974762;28;20018;-67
2021/03/21 12:47:55;;;;;;;13.05;4.55;;;8.70;99.90;;;;;;4975845;28;20065;-67
2021/03/21 12:50:24;;;;;;;25.02;5.47;;;8.60;99.90;;;;;;4974825;28;20033;-68
2021/03/21 12:52:51;;;;;;;23.27;6.25;;;8.50;99.90;;;;;;4974344;28;20035;-67
2021/03/21 12:55:19;;;;;;;22.20;5.28;;;8.50;99.90;;;;;;4975047;28;20089;-67
2021/03/21 12:57:46;;;;;;;19.95;4.50;;;8.50;99.90;;;;;;4974898;28;20026;-67
2021/03/21 13:00:22;;;;;;;16.95;4.20;;;8.40;99.90;;;;;;4975069;28;20041;-67
2021/03/21 13:02:53;;;;;;;22.13;4.90;;;8.40;99.90;;;;;;4974216;28;20090;-67
2021/03/21 13:05:29;;;;;;;13.65;3.97;;;8.30;99.90;;;;;;4975194;28;20027;-66
2021/03/21 13:07:56;;;;;;;18.00;4.10;;;8.20;99.90;;;;;;4974430;28;20034;-66
2021/03/21 13:10:25;;;;;;;18.20;4.60;;;8.10;99.90;;;;;;4974403;28;20103;-67
2021/03/21 13:12:51;;;;;;;23.87;4.90;;;8.10;99.90;;;;;;4973983;28;20066;-68
2021/03/21 13:15:19;;;;;;;16.55;4.90;;;8.10;99.90;;;;;;4974716;28;20306;-67
2021/03/21 13:17:46;;;;;;;13.20;4.15;;;8.10;99.90;;;;;;4973977;28;20090;-68
2021/03/21 13:20:15;;;;;;;11.60;3.72;;;8.10;99.90;;;;;;4973931;28;20051;-68
2021/03/21 13:22:42;;;;;;;14.40;3.78;;;8.00;99.90;;;;;;4974277;28;20027;-67
2021/03/21 13:25:11;;;;;;;17.67;4.10;;;8.00;99.90;;;;;;4973758;28;20815;-68
2021/03/21 13:27:38;;;;;;;13.70;4.55;;;8.10;99.90;;;;;;4973913;28;20053;-67
2021/03/21 13:30:05;;;;;;;21.20;4.93;;;8.20;99.90;;;;;;4973782;28;20681;-67
2021/03/21 13:32:32;;;;;;;21.30;5.22;;;8.30;99.90;;;;;;4973393;28;20523;-68
2021/03/21 13:34:58;;;;;;;17.55;4.88;;;8.40;99.90;;;;;;4974062;28;20027;-68
2021/03/21 13:37:25;;;;;;;18.55;5.30;;;8.30;99.90;;;;;;4974037;28;20065;-68